createdAt,value
2023-02-22T00:00:48.257Z,33.85
2023-02-22T00:03:15.745Z,37.78
2023-02-22T00:05:53.611Z,29.73
2023-02-22T00:08:22.933Z,29.67
2023-02-22T00:10:51.467Z,31.70
2023-02-22T00:13:22.841Z,27.20
2023-02-22T00:15:49.699Z,25.77
2023-02-22T00:18:18.853Z,31.63
2023-02-22T00:20:46.107Z,24.90
2023-02-22T00:23:22.195Z,25.77
2023-02-22T00:25:50.548Z,26.48
2023-02-22T00:28:19.038Z,29.73
2023-02-22T00:30:48.267Z,28.58
2023-02-22T00:33:16.465Z,31.70
2023-02-22T00:35:48.263Z,32.55
2023-02-22T00:38:18.048Z,28.08
2023-02-22T00:40:45.542Z,26.13
2023-02-22T00:43:12.908Z,28.65
2023-02-22T00:45:39.781Z,30.13
2023-02-22T00:48:07.698Z,32.35
2023-02-22T00:50:35.057Z,34.38
2023-02-22T00:53:03.889Z,29.35
2023-02-22T00:55:34.282Z,30.20
2023-02-22T00:58:02.237Z,34.15
2023-02-22T01:00:41.738Z,33.75
2023-02-22T01:03:11.070Z,32.63
2023-02-22T01:05:38.784Z,33.50
2023-02-22T01:08:07.829Z,31.17
2023-02-22T01:10:35.425Z,31.58
2023-02-22T01:13:08.843Z,32.85
2023-02-22T01:15:38.761Z,35.22
2023-02-22T01:18:06.122Z,31.25
2023-02-22T01:20:33.830Z,29.55
2023-02-22T01:23:03.724Z,32.17
2023-02-22T01:25:31.601Z,33.97
2023-02-22T01:28:01.119Z,29.88
2023-02-22T01:30:33.298Z,32.72
2023-02-22T01:33:01.374Z,33.17
2023-02-22T01:35:31.543Z,35.10
2023-02-22T01:37:59.038Z,39.00
2023-02-22T01:40:27.627Z,32.65
2023-02-22T01:42:57.944Z,30.33
2023-02-22T01:45:30.942Z,30.58
2023-02-22T01:48:19.882Z,31.60
2023-02-22T01:51:16.131Z,24.75
2023-02-22T01:53:54.726Z,28.02
2023-02-22T01:56:23.506Z,22.00
2023-02-22T01:58:55.956Z,27.55
2023-02-22T02:01:25.122Z,24.02
2023-02-22T02:04:00.469Z,26.77
2023-02-22T02:06:31.360Z,26.38
2023-02-22T02:09:10.914Z,26.13
2023-02-22T02:11:40.499Z,27.23
2023-02-22T02:14:09.328Z,26.52
2023-02-22T02:16:42.784Z,32.83
2023-02-22T02:19:36.251Z,35.60
2023-02-22T02:22:21.725Z,37.28
2023-02-22T02:25:05.167Z,38.25
2023-02-22T02:27:37.872Z,39.85
2023-02-22T02:30:58.248Z,42.92
2023-02-22T02:33:44.959Z,39.35
2023-02-22T02:36:52.361Z,40.95
2023-02-22T02:39:49.334Z,38.92
2023-02-22T02:42:22.285Z,44.92
2023-02-22T02:44:52.187Z,41.47
2023-02-22T02:47:27.190Z,40.60
2023-02-22T02:50:06.822Z,42.13
2023-02-22T02:52:35.594Z,42.92
2023-02-22T02:55:05.437Z,43.92
2023-02-22T02:57:32.478Z,44.42
2023-02-22T02:59:59.407Z,38.65
2023-02-22T03:02:35.950Z,43.63
2023-02-22T03:05:34.461Z,41.53
2023-02-22T03:08:15.807Z,41.17
2023-02-22T03:11:15.400Z,40.03
2023-02-22T03:13:58.351Z,38.15
2023-02-22T03:16:34.799Z,39.58
2023-02-22T03:19:40.444Z,40.50
2023-02-22T03:22:24.964Z,43.50
2023-02-22T03:24:59.086Z,41.83
2023-02-22T03:27:33.639Z,42.80
2023-02-22T03:30:08.580Z,41.63
2023-02-22T03:32:42.968Z,45.20
2023-02-22T03:35:14.980Z,39.67
2023-02-22T03:37:46.590Z,42.17
2023-02-22T03:40:26.018Z,41.85
2023-02-22T03:43:00.459Z,38.85
2023-02-22T03:45:30.029Z,38.90
2023-02-22T03:48:26.559Z,41.70
2023-02-22T03:50:53.847Z,38.78
2023-02-22T03:53:23.326Z,39.35
2023-02-22T03:55:52.212Z,38.17
2023-02-22T03:58:22.334Z,37.28
2023-02-22T04:00:53.310Z,41.13
2023-02-22T04:03:23.777Z,40.88
2023-02-22T04:05:51.203Z,43.40
2023-02-22T04:08:18.343Z,42.47
2023-02-22T04:10:45.485Z,39.85
2023-02-22T04:13:14.923Z,43.47
2023-02-22T04:15:42.023Z,38.75
2023-02-22T04:18:09.027Z,41.88
2023-02-22T04:20:35.844Z,42.92
2023-02-22T04:23:02.737Z,37.80
2023-02-22T04:25:29.547Z,39.63
2023-02-22T04:27:56.525Z,38.55
2023-02-22T04:30:23.483Z,36.90
2023-02-22T04:32:50.401Z,33.08
2023-02-22T04:35:17.357Z,34.67
2023-02-22T04:37:44.130Z,34.03
2023-02-22T04:40:11.581Z,32.83
2023-02-22T04:42:39.394Z,37.05
2023-02-22T04:45:08.112Z,31.38
2023-02-22T04:47:36.051Z,33.83
2023-02-22T04:50:04.405Z,33.42
2023-02-22T04:52:31.632Z,34.88
2023-02-22T04:54:58.803Z,32.40
2023-02-22T04:57:27.201Z,34.03
2023-02-22T04:59:54.192Z,35.72
2023-02-22T05:02:21.271Z,36.35
2023-02-22T05:04:48.873Z,30.08
2023-02-22T05:07:15.704Z,29.85
2023-02-22T05:09:42.640Z,33.60
2023-02-22T05:12:09.542Z,34.20
2023-02-22T05:14:36.345Z,33.90
2023-02-22T05:17:04.074Z,33.03
2023-02-22T05:19:31.013Z,34.53
2023-02-22T05:21:57.918Z,34.95
2023-02-22T05:24:24.916Z,42.03
2023-02-22T05:26:53.279Z,38.65
2023-02-22T05:29:21.180Z,39.50
2023-02-22T05:31:48.067Z,38.78
2023-02-22T05:34:16.225Z,37.33
2023-02-22T05:36:43.222Z,40.08
2023-02-22T05:39:10.042Z,37.50
2023-02-22T05:41:36.799Z,35.67
2023-02-22T05:44:03.683Z,34.78
2023-02-22T05:46:30.955Z,35.42
2023-02-22T05:48:57.949Z,39.20
2023-02-22T05:51:25.039Z,31.85
2023-02-22T05:53:52.595Z,34.95
2023-02-22T05:56:28.022Z,32.08
2023-02-22T05:58:55.098Z,35.25
2023-02-22T06:01:22.167Z,27.50
2023-02-22T06:03:50.559Z,32.53
2023-02-22T06:06:22.274Z,35.75
2023-02-22T06:08:49.731Z,34.53
2023-02-22T06:11:17.520Z,36.17
2023-02-22T06:13:53.108Z,43.75
2023-02-22T06:16:21.411Z,42.33
2023-02-22T06:18:48.913Z,33.00
2023-02-22T06:21:17.531Z,38.97
2023-02-22T06:23:44.734Z,35.22
2023-02-22T06:26:11.630Z,34.50
2023-02-22T06:28:38.425Z,35.30
2023-02-22T06:31:05.459Z,39.10
2023-02-22T06:33:32.428Z,37.28
2023-02-22T06:35:59.418Z,36.97
2023-02-22T06:38:27.948Z,30.50
2023-02-22T06:40:57.996Z,30.90
2023-02-22T06:43:25.773Z,32.15
2023-02-22T06:45:53.179Z,31.85
2023-02-22T06:48:20.536Z,35.90
2023-02-22T06:50:47.569Z,30.23
2023-02-22T06:53:14.675Z,34.00
2023-02-22T06:55:41.587Z,31.85
2023-02-22T06:58:08.420Z,38.50
2023-02-22T07:00:35.515Z,29.42
2023-02-22T07:03:04.766Z,30.63
2023-02-22T07:05:31.675Z,32.17
2023-02-22T07:08:05.285Z,35.28
2023-02-22T07:10:33.805Z,31.38
2023-02-22T07:13:01.711Z,34.70
2023-02-22T07:15:31.464Z,33.58
2023-02-22T07:17:58.941Z,30.70
2023-02-22T07:20:28.308Z,28.42
2023-02-22T07:22:55.487Z,32.42
2023-02-22T07:25:24.464Z,39.20
2023-02-22T07:27:52.546Z,34.70
2023-02-22T07:30:26.089Z,41.75
2023-02-22T07:32:54.672Z,33.75
2023-02-22T07:35:25.815Z,34.55
2023-02-22T07:37:55.731Z,32.28
2023-02-22T07:40:24.216Z,36.05
2023-02-22T07:43:02.032Z,33.88
2023-02-22T07:45:31.278Z,34.90
2023-02-22T07:47:58.730Z,32.60
2023-02-22T07:50:27.207Z,36.15
2023-02-22T07:52:57.051Z,34.72
2023-02-22T07:55:27.248Z,42.20
2023-02-22T07:57:57.364Z,39.40
2023-02-22T08:00:30.116Z,40.85
2023-02-22T08:02:58.051Z,40.70
2023-02-22T08:05:27.530Z,46.33
2023-02-22T08:07:54.801Z,62.40
2023-02-22T08:10:23.437Z,74.57
2023-02-22T08:12:50.849Z,59.80
2023-02-22T08:15:25.159Z,47.92
2023-02-22T08:17:53.482Z,38.28
2023-02-22T08:20:21.449Z,33.03
2023-02-22T08:22:48.758Z,31.52
2023-02-22T08:25:17.606Z,144.45
2023-02-22T08:27:45.019Z,44.42
2023-02-22T08:30:16.206Z,37.28
2023-02-22T08:32:43.362Z,37.95
2023-02-22T08:35:10.492Z,42.70
2023-02-22T08:37:37.562Z,40.00
2023-02-22T08:40:04.877Z,45.20
2023-02-22T08:42:31.912Z,40.90
2023-02-22T08:45:08.456Z,36.30
2023-02-22T08:47:35.718Z,46.97
2023-02-22T08:50:02.678Z,41.65
2023-02-22T08:52:29.484Z,35.08
2023-02-22T08:54:56.443Z,33.58
2023-02-22T08:57:23.328Z,38.92
2023-02-22T08:59:50.134Z,35.33
2023-02-22T09:02:19.328Z,33.30
2023-02-22T09:04:47.978Z,29.15
2023-02-22T09:07:15.992Z,32.88
2023-02-22T09:09:44.471Z,30.38
2023-02-22T09:12:11.344Z,30.75
2023-02-22T09:14:38.308Z,31.15
2023-02-22T09:17:05.940Z,36.95
2023-02-22T09:19:33.053Z,28.13
2023-02-22T09:22:00.566Z,32.80
2023-02-22T09:24:27.549Z,36.80
2023-02-22T09:26:54.866Z,36.38
2023-02-22T09:29:23.873Z,37.30
2023-02-22T09:31:52.372Z,41.67
2023-02-22T09:34:22.692Z,54.85
2023-02-22T09:36:50.436Z,36.35
2023-02-22T09:39:18.540Z,34.00
2023-02-22T09:42:24.090Z,42.13
2023-02-22T09:44:55.844Z,35.72
2023-02-22T09:47:32.588Z,31.70
2023-02-22T09:50:15.592Z,36.72
2023-02-22T09:53:01.219Z,37.53
2023-02-22T09:55:39.488Z,40.92
2023-02-22T09:58:34.102Z,38.78
2023-02-22T10:01:44.953Z,35.92
2023-02-22T10:04:20.057Z,37.70
2023-02-22T10:07:12.640Z,42.13
2023-02-22T10:09:43.424Z,39.78
2023-02-22T10:12:33.209Z,37.10
2023-02-22T10:15:16.098Z,40.47
2023-02-22T10:18:19.511Z,42.13
2023-02-22T10:20:46.512Z,42.35
2023-02-22T10:23:28.612Z,40.92
2023-02-22T10:26:20.262Z,44.83
2023-02-22T10:28:55.356Z,42.13
2023-02-22T10:31:28.762Z,44.10
2023-02-22T10:34:13.968Z,46.70
2023-02-22T10:36:46.094Z,52.33
2023-02-22T10:39:33.857Z,49.50
2023-02-22T10:42:09.243Z,42.85
2023-02-22T10:44:37.634Z,49.22
2023-02-22T10:47:10.208Z,52.30
2023-02-22T10:49:46.208Z,52.92
2023-02-22T10:52:26.076Z,50.75
2023-02-22T10:55:06.090Z,64.80
2023-02-22T10:57:42.473Z,59.00
2023-02-22T11:00:29.518Z,61.17
2023-02-22T11:03:02.690Z,64.97
2023-02-22T11:05:39.091Z,60.03
2023-02-22T11:08:21.276Z,62.08
2023-02-22T11:10:53.820Z,59.58
2023-02-22T11:13:35.982Z,65.43
2023-02-22T11:16:20.635Z,66.40
2023-02-22T11:18:50.505Z,77.38
2023-02-22T11:21:23.224Z,73.50
2023-02-22T11:23:50.531Z,74.13
2023-02-22T11:26:20.690Z,81.00
2023-02-22T11:28:56.263Z,73.65
2023-02-22T11:31:29.128Z,79.28
2023-02-22T11:34:01.345Z,83.13
2023-02-22T11:36:33.225Z,80.40
2023-02-22T11:39:01.088Z,86.35
2023-02-22T11:41:30.906Z,83.43
2023-02-22T11:44:26.736Z,89.35
2023-02-22T11:47:01.500Z,89.60
2023-02-22T11:49:42.737Z,84.47
2023-02-22T11:52:31.026Z,90.88
2023-02-22T11:55:43.638Z,91.82
2023-02-22T11:58:23.691Z,90.45
2023-02-22T12:01:07.974Z,99.32
2023-02-22T12:03:54.187Z,97.85
2023-02-22T12:06:41.629Z,97.53
2023-02-22T12:09:15.121Z,101.10
2023-02-22T12:12:06.199Z,94.88
2023-02-22T12:14:44.705Z,99.82
2023-02-22T12:17:35.014Z,96.88
2023-02-22T12:20:10.322Z,108.38
2023-02-22T12:22:46.038Z,110.53
2023-02-22T12:25:24.020Z,107.80
2023-02-22T12:27:55.859Z,104.35
2023-02-22T12:30:31.810Z,119.05
2023-02-22T12:33:11.964Z,110.68
2023-02-22T12:35:43.245Z,115.78
2023-02-22T12:38:23.695Z,116.93
2023-02-22T12:41:00.762Z,118.65
2023-02-22T12:43:34.187Z,115.00
2023-02-22T12:46:12.017Z,114.55
2023-02-22T12:48:59.349Z,110.63
2023-02-22T12:51:44.413Z,118.28
2023-02-22T12:54:21.589Z,112.32
2023-02-22T12:57:01.217Z,115.13
2023-02-22T12:59:45.972Z,124.25
2023-02-22T13:02:18.124Z,120.40
2023-02-22T13:04:45.047Z,109.93
2023-02-22T13:07:17.468Z,125.78
2023-02-22T13:10:08.258Z,114.82
2023-02-22T13:13:03.855Z,119.03
2023-02-22T13:15:37.334Z,113.60
2023-02-22T13:18:33.126Z,115.03
2023-02-22T13:21:07.037Z,112.53
2023-02-22T13:24:05.940Z,120.85
2023-02-22T13:26:47.546Z,119.15
2023-02-22T13:29:28.471Z,121.82
2023-02-22T13:31:58.451Z,117.55
2023-02-22T13:34:31.154Z,111.65
2023-02-22T13:37:17.774Z,113.13
2023-02-22T13:40:00.861Z,116.63
2023-02-22T13:42:37.554Z,127.38
2023-02-22T13:45:16.369Z,125.60
2023-02-22T13:47:56.192Z,130.85
2023-02-22T13:51:00.762Z,118.43
2023-02-22T13:53:33.071Z,115.45
2023-02-22T13:56:01.503Z,102.85
2023-02-22T13:58:28.455Z,111.57
2023-02-22T14:00:57.579Z,105.43
2023-02-22T14:03:41.394Z,97.60
2023-02-22T14:06:11.446Z,89.18
2023-02-22T14:08:41.953Z,94.65
2023-02-22T14:11:14.878Z,93.72
2023-02-22T14:13:55.689Z,90.72
2023-02-22T14:16:27.576Z,84.53
2023-02-22T14:19:06.425Z,81.00
2023-02-22T14:21:35.253Z,94.30
2023-02-22T14:24:14.246Z,75.75
2023-02-22T14:26:53.576Z,77.43
2023-02-22T14:29:21.697Z,68.97
2023-02-22T14:31:50.812Z,75.45
2023-02-22T14:34:40.567Z,79.25
2023-02-22T14:37:36.552Z,75.72
2023-02-22T14:40:21.707Z,68.55
2023-02-22T14:42:51.121Z,63.70
2023-02-22T14:45:29.732Z,66.50
2023-02-22T14:48:25.079Z,69.70
2023-02-22T14:51:05.902Z,64.80
2023-02-22T14:53:49.312Z,62.42
2023-02-22T14:56:25.894Z,77.72
2023-02-22T14:59:12.390Z,64.97
2023-02-22T15:01:49.337Z,63.60
2023-02-22T15:04:30.992Z,60.63
2023-02-22T15:07:00.322Z,63.78
2023-02-22T15:09:32.960Z,60.85
2023-02-22T15:12:04.677Z,56.78
2023-02-22T15:14:37.907Z,68.10
2023-02-22T15:17:10.619Z,61.88
2023-02-22T15:19:40.280Z,64.80
2023-02-22T15:22:22.968Z,62.13
2023-02-22T15:25:01.892Z,67.72
2023-02-22T15:27:29.340Z,67.32
2023-02-22T15:30:04.974Z,65.80
2023-02-22T15:32:53.468Z,73.78
2023-02-22T15:35:35.517Z,73.25
2023-02-22T15:38:11.683Z,70.13
2023-02-22T15:40:43.246Z,80.30
2023-02-22T15:43:28.584Z,80.25
2023-02-22T15:45:57.427Z,69.35
2023-02-22T15:48:26.501Z,68.53
2023-02-22T15:51:09.353Z,67.78
2023-02-22T15:53:51.157Z,62.53
2023-02-22T15:56:30.301Z,69.45
2023-02-22T15:59:15.557Z,64.50
2023-02-22T16:01:46.094Z,72.28
2023-02-22T16:04:20.114Z,68.15
2023-02-22T16:06:48.700Z,69.72
2023-02-22T16:09:22.984Z,87.88
2023-02-22T16:11:50.082Z,83.00
2023-02-22T16:14:39.631Z,71.50
2023-02-22T16:17:35.767Z,73.30
2023-02-22T16:20:22.675Z,75.07
2023-02-22T16:22:50.377Z,72.07
2023-02-22T16:25:21.660Z,74.75
2023-02-22T16:27:50.565Z,65.88
2023-02-22T16:30:34.739Z,68.05
2023-02-22T16:33:05.821Z,66.32
2023-02-22T16:35:35.643Z,77.35
2023-02-22T16:38:05.279Z,72.40
2023-02-22T16:40:39.542Z,72.13
2023-02-22T16:43:14.743Z,72.45
2023-02-22T16:45:42.678Z,71.43
2023-02-22T16:48:18.312Z,73.22
2023-02-22T16:50:46.109Z,71.60
2023-02-22T16:53:13.573Z,78.32
2023-02-22T16:55:44.912Z,83.38
2023-02-22T16:58:13.834Z,73.00
2023-02-22T17:00:42.410Z,72.00
2023-02-22T17:03:18.495Z,72.43
2023-02-22T17:05:46.001Z,72.90
2023-02-22T17:08:13.701Z,69.75
2023-02-22T17:10:40.738Z,73.68
2023-02-22T17:13:21.807Z,77.43
2023-02-22T17:15:50.262Z,76.25
2023-02-22T17:18:23.025Z,78.57
2023-02-22T17:20:51.311Z,76.13
2023-02-22T17:23:19.173Z,96.70
2023-02-22T17:25:51.288Z,83.75
2023-02-22T17:28:18.174Z,102.25
2023-02-22T17:30:47.983Z,92.55
2023-02-22T17:33:18.477Z,86.97
2023-02-22T17:35:47.066Z,94.45
2023-02-22T17:38:18.662Z,85.43
2023-02-22T17:40:54.805Z,82.72
2023-02-22T17:43:23.263Z,85.85
2023-02-22T17:45:50.377Z,73.30
2023-02-22T17:48:18.489Z,87.25
2023-02-22T17:50:47.917Z,75.68
2023-02-22T17:53:15.488Z,79.30
2023-02-22T17:55:42.987Z,82.72
2023-02-22T17:58:17.358Z,84.22
2023-02-22T18:00:47.532Z,78.30
2023-02-22T18:03:25.925Z,74.28
2023-02-22T18:05:58.857Z,78.65
2023-02-22T18:08:27.936Z,86.05
2023-02-22T18:10:58.163Z,85.00
2023-02-22T18:13:27.063Z,79.72
2023-02-22T18:16:00.422Z,79.93
2023-02-22T18:18:27.771Z,84.22
2023-02-22T18:20:59.553Z,79.70
2023-02-22T18:23:28.980Z,80.65
2023-02-22T18:26:09.742Z,85.70
2023-02-22T18:28:38.111Z,81.00
2023-02-22T18:31:10.293Z,82.22
2023-02-22T18:33:37.340Z,83.32
2023-02-22T18:36:04.765Z,83.18
2023-02-22T18:38:32.417Z,81.75
2023-02-22T18:41:03.923Z,83.53
2023-02-22T18:43:37.146Z,80.93
2023-02-22T18:46:21.616Z,81.10
2023-02-22T18:48:52.030Z,81.13
2023-02-22T18:51:19.059Z,79.40
2023-02-22T18:53:47.728Z,81.32
2023-02-22T18:56:17.851Z,80.85
2023-02-22T18:58:45.766Z,91.47
2023-02-22T19:01:18.850Z,92.53
2023-02-22T19:03:49.647Z,85.10
2023-02-22T19:06:17.274Z,83.68
2023-02-22T19:08:45.906Z,85.63
2023-02-22T19:11:19.359Z,86.68
2023-02-22T19:13:48.695Z,87.82
2023-02-22T19:16:19.734Z,85.88
2023-02-22T19:18:48.914Z,88.07
2023-02-22T19:21:16.477Z,88.32
2023-02-22T19:23:46.521Z,96.10
2023-02-22T19:26:18.565Z,96.53
2023-02-22T19:28:47.705Z,95.18
2023-02-22T19:31:26.541Z,116.93
2023-02-22T19:33:54.403Z,118.07
2023-02-22T19:36:25.779Z,121.38
2023-02-22T19:38:52.845Z,115.93
2023-02-22T19:41:22.604Z,122.03
2023-02-22T19:43:52.182Z,126.13
2023-02-22T19:46:21.509Z,145.25
2023-02-22T19:48:49.227Z,117.10
2023-02-22T19:51:18.245Z,110.20
2023-02-22T19:53:46.186Z,96.07
2023-02-22T19:56:16.919Z,97.80
2023-02-22T19:58:46.071Z,95.10
2023-02-22T20:01:22.891Z,94.85
2023-02-22T20:04:11.957Z,109.82
2023-02-22T20:06:41.120Z,93.40
2023-02-22T20:09:13.908Z,99.10
2023-02-22T20:11:40.933Z,102.70
2023-02-22T20:14:08.142Z,95.57
2023-02-22T20:16:35.432Z,108.72
2023-02-22T20:19:02.525Z,97.03
2023-02-22T20:21:33.806Z,95.07
2023-02-22T20:24:07.717Z,88.80
2023-02-22T20:26:36.717Z,101.55
2023-02-22T20:29:05.608Z,95.30
2023-02-22T20:31:33.444Z,95.03
2023-02-22T20:34:01.225Z,86.95
2023-02-22T20:36:30.162Z,86.15
2023-02-22T20:38:59.071Z,92.93
2023-02-22T20:41:34.959Z,93.28
2023-02-22T20:44:03.591Z,86.15
2023-02-22T20:46:31.753Z,95.25
2023-02-22T20:49:00.944Z,94.55
2023-02-22T20:51:28.760Z,90.40
2023-02-22T20:53:59.881Z,95.97
2023-02-22T20:56:28.771Z,88.78
2023-02-22T20:59:01.278Z,81.45
2023-02-22T21:01:29.199Z,91.72
2023-02-22T21:04:05.088Z,78.95
2023-02-22T21:06:34.142Z,73.97
2023-02-22T21:09:02.743Z,78.28
2023-02-22T21:11:32.085Z,72.05
2023-02-22T21:14:00.483Z,71.95
2023-02-22T21:16:30.065Z,69.70
2023-02-22T21:18:59.642Z,72.57
2023-02-22T21:21:28.067Z,67.80
2023-02-22T21:23:57.768Z,63.63
2023-02-22T21:26:29.646Z,70.35
2023-02-22T21:29:01.475Z,71.25
2023-02-22T21:31:29.275Z,65.28
2023-02-22T21:33:58.389Z,69.57
2023-02-22T21:36:26.232Z,71.93
2023-02-22T21:38:58.823Z,71.70
2023-02-22T21:41:28.960Z,73.22
2023-02-22T21:43:57.594Z,74.35
2023-02-22T21:46:35.159Z,78.43
2023-02-22T21:49:02.194Z,66.72
2023-02-22T21:51:31.626Z,70.70
2023-02-22T21:54:03.579Z,70.97
2023-02-22T21:56:34.747Z,69.20
2023-02-22T21:59:07.246Z,69.47
2023-02-22T22:01:37.171Z,72.32
2023-02-22T22:04:05.634Z,75.18
2023-02-22T22:06:34.681Z,74.63
2023-02-22T22:09:05.295Z,71.53
2023-02-22T22:11:32.240Z,72.18
2023-02-22T22:13:59.789Z,77.93
2023-02-22T22:16:29.990Z,75.95
2023-02-22T22:18:57.279Z,73.95
2023-02-22T22:21:25.024Z,78.22
2023-02-22T22:23:56.332Z,76.65
2023-02-22T22:26:25.007Z,66.95
2023-02-22T22:28:58.511Z,67.57
2023-02-22T22:31:26.721Z,75.88
2023-02-22T22:33:56.206Z,65.85
2023-02-22T22:36:24.640Z,63.78
2023-02-22T22:38:52.816Z,66.78
2023-02-22T22:41:21.713Z,67.32
2023-02-22T22:43:48.836Z,68.45
2023-02-22T22:46:18.070Z,65.43
2023-02-22T22:48:47.139Z,68.75
2023-02-22T22:51:22.106Z,71.68
2023-02-22T22:53:50.895Z,63.25
2023-02-22T22:56:21.269Z,69.53
2023-02-22T22:58:51.542Z,65.10
2023-02-22T23:01:27.191Z,67.47
2023-02-22T23:03:59.843Z,68.78
2023-02-22T23:06:32.945Z,76.07
2023-02-22T23:09:01.668Z,68.15
2023-02-22T23:11:30.410Z,71.22
2023-02-22T23:13:57.283Z,76.82
2023-02-22T23:16:24.770Z,72.75
2023-02-22T23:18:52.069Z,76.03
2023-02-22T23:21:24.287Z,77.65
2023-02-22T23:23:56.030Z,83.82
2023-02-22T23:26:26.649Z,78.15
2023-02-22T23:28:56.745Z,76.95
2023-02-22T23:31:24.420Z,83.03
2023-02-22T23:33:51.911Z,85.85
2023-02-22T23:36:19.572Z,86.28
2023-02-22T23:38:46.584Z,80.80
2023-02-22T23:41:18.604Z,92.10
2023-02-22T23:43:46.393Z,85.88
2023-02-22T23:46:18.563Z,85.90
2023-02-22T23:48:51.723Z,86.32
2023-02-22T23:51:25.882Z,94.88
2023-02-22T23:53:55.884Z,91.32
2023-02-22T23:56:27.931Z,97.85
2023-02-22T23:58:57.565Z,101.43
